createdAt,value
2023-01-21T00:00:38.295Z,21.70
2023-01-21T00:04:44.759Z,22.57
2023-01-21T00:08:48.089Z,25.83
2023-01-21T00:12:52.939Z,18.67
2023-01-21T00:16:56.032Z,26.90
2023-01-21T00:21:17.011Z,21.20
2023-01-21T00:25:20.661Z,28.73
2023-01-21T00:29:30.963Z,22.57
2023-01-21T00:33:35.935Z,23.00
2023-01-21T00:37:42.876Z,25.90
2023-01-21T00:41:48.040Z,25.83
2023-01-21T00:45:51.659Z,20.87
2023-01-21T00:49:55.167Z,23.47
2023-01-21T00:54:04.473Z,17.97
2023-01-21T00:58:07.915Z,27.63
2023-01-21T01:02:14.385Z,26.27
2023-01-21T01:06:19.600Z,26.40
2023-01-21T01:10:24.645Z,21.63
2023-01-21T01:14:33.517Z,28.53
2023-01-21T01:18:44.000Z,24.93
2023-01-21T01:22:54.359Z,20.60
2023-01-21T01:27:02.870Z,21.30
2023-01-21T01:31:09.234Z,23.63
2023-01-21T01:35:18.187Z,19.37
2023-01-21T01:39:21.374Z,23.73
2023-01-21T01:43:30.173Z,23.43
2023-01-21T01:47:39.366Z,27.60
2023-01-21T01:51:49.143Z,19.13
2023-01-21T01:55:55.255Z,21.90
2023-01-21T02:00:02.358Z,26.20
2023-01-21T02:04:09.739Z,27.07
2023-01-21T02:08:13.385Z,25.47
2023-01-21T02:12:18.216Z,25.17
2023-01-21T02:16:52.078Z,27.70
2023-01-21T02:21:46.859Z,31.60
2023-01-21T02:26:16.959Z,19.43
2023-01-21T02:30:53.005Z,28.07
2023-01-21T02:35:03.504Z,23.40
2023-01-21T02:39:13.600Z,29.73
2023-01-21T02:43:29.413Z,22.70
2023-01-21T02:47:39.339Z,24.90
2023-01-21T02:51:50.635Z,21.53
2023-01-21T02:55:54.209Z,31.47
2023-01-21T03:00:00.391Z,23.10
2023-01-21T03:04:33.080Z,28.60
2023-01-21T03:08:46.862Z,28.80
2023-01-21T03:13:00.641Z,24.50
2023-01-21T03:17:08.607Z,26.70
2023-01-21T03:21:16.562Z,27.40
2023-01-21T03:25:22.293Z,28.37
2023-01-21T03:29:36.390Z,29.03
2023-01-21T03:33:46.868Z,27.47
2023-01-21T03:37:58.999Z,22.23
2023-01-21T03:42:05.776Z,24.47
2023-01-21T03:46:13.547Z,22.83
2023-01-21T03:50:23.752Z,23.03
2023-01-21T03:54:26.816Z,29.57
2023-01-21T03:58:35.913Z,32.50
2023-01-21T04:02:39.292Z,26.77
2023-01-21T04:06:42.404Z,29.73
2023-01-21T04:10:51.825Z,21.33
2023-01-21T04:14:58.545Z,23.13
2023-01-21T04:19:02.165Z,25.97
2023-01-21T04:23:07.316Z,26.07
2023-01-21T04:27:14.717Z,20.83
2023-01-21T04:31:21.645Z,23.93
2023-01-21T04:35:26.325Z,26.80
2023-01-21T04:39:37.367Z,29.60
2023-01-21T04:43:43.629Z,23.93
2023-01-21T04:47:49.320Z,32.87
2023-01-21T04:51:54.028Z,29.07
2023-01-21T04:55:59.785Z,28.37
2023-01-21T05:00:06.659Z,33.27
2023-01-21T05:04:12.001Z,27.80
2023-01-21T05:08:16.303Z,25.40
2023-01-21T05:12:21.976Z,26.63
2023-01-21T05:16:26.285Z,26.67
2023-01-21T05:20:31.995Z,24.57
2023-01-21T05:24:41.484Z,31.97
2023-01-21T05:28:49.993Z,32.07
2023-01-21T05:32:53.641Z,34.90
2023-01-21T05:36:59.238Z,29.33
2023-01-21T05:41:05.509Z,31.37
2023-01-21T05:45:15.569Z,27.07
2023-01-21T05:49:19.900Z,26.30
2023-01-21T05:53:33.225Z,34.37
2023-01-21T05:57:37.733Z,36.40
2023-01-21T06:01:54.402Z,30.53
2023-01-21T06:06:00.501Z,27.23
2023-01-21T06:10:06.493Z,28.40
2023-01-21T06:14:10.771Z,36.00
2023-01-21T06:18:16.369Z,32.47
2023-01-21T06:22:21.984Z,34.53
2023-01-21T06:26:27.284Z,23.30
2023-01-21T06:30:32.110Z,21.63
2023-01-21T06:34:39.049Z,37.07
2023-01-21T06:38:45.490Z,30.73
2023-01-21T06:42:56.421Z,31.67
2023-01-21T06:47:01.159Z,31.50
2023-01-21T06:51:05.396Z,31.50
2023-01-21T06:55:09.248Z,35.70
2023-01-21T06:59:14.117Z,32.40
2023-01-21T07:03:22.944Z,35.30
2023-01-21T07:07:26.287Z,27.17
2023-01-21T07:11:29.654Z,26.57
2023-01-21T07:15:39.385Z,32.10
2023-01-21T07:19:43.559Z,32.63
2023-01-21T07:23:49.484Z,33.43
2023-01-21T07:27:54.818Z,28.43
2023-01-21T07:32:00.492Z,27.47
2023-01-21T07:36:03.849Z,32.10
2023-01-21T07:40:12.297Z,36.67
2023-01-21T07:44:15.693Z,37.97
2023-01-21T07:48:21.927Z,34.23
2023-01-21T07:52:29.684Z,25.90
2023-01-21T07:56:36.520Z,24.87
2023-01-21T08:00:42.625Z,40.63
2023-01-21T08:04:48.093Z,27.57
2023-01-21T08:08:53.948Z,34.17
2023-01-21T08:13:02.248Z,31.90
2023-01-21T08:17:05.631Z,22.80
2023-01-21T08:21:10.130Z,33.63
2023-01-21T08:25:13.678Z,33.33
2023-01-21T08:29:17.301Z,21.17
2023-01-21T08:33:20.460Z,30.40
2023-01-21T08:37:26.378Z,30.63
2023-01-21T08:41:35.307Z,34.13
2023-01-21T08:45:40.348Z,24.33
2023-01-21T08:49:45.986Z,34.57
2023-01-21T08:53:51.850Z,28.50
2023-01-21T08:58:01.690Z,27.20
2023-01-21T09:02:08.745Z,26.47
2023-01-21T09:06:13.232Z,21.80
2023-01-21T09:10:48.624Z,28.23
2023-01-21T09:14:51.712Z,24.83
2023-01-21T09:18:57.474Z,22.43
2023-01-21T09:23:01.586Z,25.93
2023-01-21T09:27:08.314Z,17.40
2023-01-21T09:31:15.166Z,22.83
2023-01-21T09:35:23.951Z,20.37
2023-01-21T09:39:33.235Z,25.43
2023-01-21T09:43:46.158Z,20.53
2023-01-21T09:47:56.889Z,23.60
2023-01-21T09:52:07.787Z,24.20
2023-01-21T09:56:20.309Z,17.37
2023-01-21T10:00:39.119Z,24.53
2023-01-21T10:04:49.906Z,16.30
2023-01-21T10:09:23.844Z,13.97
2023-01-21T10:13:38.152Z,20.47
2023-01-21T10:17:53.541Z,11.63
2023-01-21T10:22:01.842Z,17.07
2023-01-21T10:26:15.538Z,22.60
2023-01-21T10:30:28.729Z,17.23
2023-01-21T10:34:42.541Z,18.13
2023-01-21T10:38:56.522Z,17.87
2023-01-21T10:43:06.207Z,15.47
2023-01-21T10:47:21.239Z,16.83
2023-01-21T10:51:32.359Z,14.80
2023-01-21T10:55:47.913Z,14.73
2023-01-21T10:59:52.580Z,16.87
2023-01-21T11:03:58.584Z,20.63
2023-01-21T11:08:04.592Z,18.23
2023-01-21T11:12:11.083Z,15.17
2023-01-21T11:16:14.172Z,14.13
2023-01-21T11:20:27.896Z,7.90
2023-01-21T11:24:44.763Z,10.90
2023-01-21T11:28:50.266Z,9.67
2023-01-21T11:32:55.279Z,8.57
2023-01-21T11:37:04.235Z,13.00
2023-01-21T11:41:25.767Z,7.50
2023-01-21T11:45:35.408Z,8.70
2023-01-21T11:49:48.358Z,11.63
2023-01-21T11:54:08.783Z,11.53
2023-01-21T11:58:23.398Z,9.40
2023-01-21T12:02:30.388Z,8.80
2023-01-21T12:06:37.038Z,8.00
2023-01-21T12:10:45.402Z,9.23
2023-01-21T12:14:54.735Z,5.10
2023-01-21T12:19:24.973Z,7.47
2023-01-21T12:23:46.387Z,6.10
2023-01-21T12:28:02.416Z,7.40
2023-01-21T12:32:12.778Z,6.00
2023-01-21T12:36:27.780Z,14.90
2023-01-21T12:40:37.406Z,7.10
2023-01-21T12:44:48.473Z,6.03
2023-01-21T12:48:58.727Z,4.70
2023-01-21T12:53:17.913Z,5.77
2023-01-21T12:57:28.910Z,5.03
2023-01-21T13:01:50.859Z,6.63
2023-01-21T13:06:01.897Z,8.37
2023-01-21T13:10:16.165Z,6.33
2023-01-21T13:14:29.751Z,7.00
2023-01-21T13:18:36.364Z,7.63
2023-01-21T13:22:48.649Z,7.80
2023-01-21T13:27:05.273Z,5.20
2023-01-21T13:31:19.886Z,9.43
2023-01-21T13:35:32.928Z,5.03
2023-01-21T13:39:50.129Z,11.50
2023-01-21T13:44:12.408Z,4.67
2023-01-21T13:48:44.303Z,5.20
2023-01-21T13:53:09.117Z,7.17
2023-01-21T13:57:33.298Z,7.73
2023-01-21T14:01:45.680Z,8.03
2023-01-21T14:05:54.541Z,9.23
2023-01-21T14:10:07.912Z,12.50
2023-01-21T14:14:54.395Z,12.10
2023-01-21T14:19:22.383Z,7.33
2023-01-21T14:23:51.097Z,9.97
2023-01-21T14:28:08.886Z,8.13
2023-01-21T14:32:20.746Z,9.30
2023-01-21T14:36:34.136Z,9.30
2023-01-21T14:40:46.581Z,7.60
2023-01-21T14:45:05.412Z,8.47
2023-01-21T14:49:12.640Z,9.67
2023-01-21T14:53:21.339Z,8.93
2023-01-21T14:57:34.533Z,9.87
2023-01-21T15:01:44.043Z,9.43
2023-01-21T15:05:54.507Z,12.13
2023-01-21T15:10:03.091Z,10.80
2023-01-21T15:14:13.715Z,10.63
2023-01-21T15:18:44.713Z,7.80
2023-01-21T15:23:06.457Z,7.87
2023-01-21T15:27:20.301Z,10.93
2023-01-21T15:31:44.635Z,9.20
2023-01-21T15:35:52.897Z,15.40
2023-01-21T15:40:04.851Z,11.37
2023-01-21T15:44:38.571Z,9.07
2023-01-21T15:49:15.892Z,7.83
2023-01-21T15:53:53.169Z,8.00
2023-01-21T15:58:10.670Z,8.67
2023-01-21T16:02:23.104Z,4.70
2023-01-21T16:06:48.992Z,8.23
2023-01-21T16:11:13.815Z,11.37
2023-01-21T16:15:29.095Z,6.33
2023-01-21T16:19:40.912Z,9.80
2023-01-21T16:23:51.582Z,17.80
2023-01-21T16:27:56.721Z,11.97
2023-01-21T16:32:03.351Z,12.93
2023-01-21T16:36:09.124Z,11.47
2023-01-21T16:40:30.873Z,17.30
2023-01-21T16:44:35.397Z,11.23
2023-01-21T16:48:40.256Z,15.43
2023-01-21T16:52:48.718Z,13.73
2023-01-21T16:56:58.386Z,13.60
2023-01-21T17:01:11.626Z,11.40
2023-01-21T17:05:17.581Z,15.77
2023-01-21T17:09:27.616Z,14.40
2023-01-21T17:13:32.595Z,16.53
2023-01-21T17:17:38.033Z,14.20
2023-01-21T17:21:47.348Z,14.57
2023-01-21T17:25:59.375Z,15.27
2023-01-21T17:30:42.222Z,14.57
2023-01-21T17:35:07.118Z,13.13
2023-01-21T17:39:12.886Z,12.90
2023-01-21T17:43:24.425Z,14.20
2023-01-21T17:47:33.372Z,13.40
2023-01-21T17:51:41.666Z,13.00
2023-01-21T17:55:57.590Z,15.27
2023-01-21T18:00:01.194Z,11.73
2023-01-21T18:04:15.423Z,14.33
2023-01-21T18:08:43.804Z,18.00
2023-01-21T18:12:50.928Z,15.23
2023-01-21T18:16:56.526Z,15.03
2023-01-21T18:21:03.201Z,16.97
2023-01-21T18:25:09.895Z,18.73
2023-01-21T18:29:17.487Z,19.43
2023-01-21T18:33:23.867Z,14.57
2023-01-21T18:37:30.640Z,14.53
2023-01-21T18:41:36.347Z,15.20
2023-01-21T18:45:43.259Z,14.77
2023-01-21T18:49:51.903Z,16.23
2023-01-21T18:53:57.304Z,14.83
2023-01-21T18:58:03.556Z,15.70
2023-01-21T19:02:17.506Z,16.90
2023-01-21T19:06:25.729Z,12.30
2023-01-21T19:10:31.731Z,16.00
2023-01-21T19:14:35.648Z,17.73
2023-01-21T19:18:50.709Z,14.13
2023-01-21T19:22:56.155Z,14.77
2023-01-21T19:27:02.626Z,15.17
2023-01-21T19:31:09.073Z,14.60
2023-01-21T19:35:18.282Z,13.97
2023-01-21T19:39:25.502Z,15.70
2023-01-21T19:43:30.646Z,18.23
2023-01-21T19:47:38.253Z,15.10
2023-01-21T19:51:42.523Z,13.23
2023-01-21T19:55:47.086Z,15.90
2023-01-21T19:59:54.535Z,12.43
2023-01-21T20:04:00.631Z,14.37
2023-01-21T20:08:05.781Z,13.50
2023-01-21T20:12:10.389Z,13.50
2023-01-21T20:16:17.216Z,16.87
2023-01-21T20:20:22.554Z,13.73
2023-01-21T20:24:30.198Z,14.23
2023-01-21T20:28:40.064Z,14.67
2023-01-21T20:32:43.767Z,12.77
2023-01-21T20:36:48.961Z,13.83
2023-01-21T20:40:53.361Z,13.73
2023-01-21T20:44:56.411Z,18.17
2023-01-21T20:49:00.168Z,14.63
2023-01-21T20:53:11.921Z,16.80
2023-01-21T20:57:18.766Z,15.27
2023-01-21T21:01:25.284Z,16.47
2023-01-21T21:05:29.823Z,13.87
2023-01-21T21:09:40.146Z,14.57
2023-01-21T21:13:46.480Z,15.83
2023-01-21T21:18:07.620Z,13.33
2023-01-21T21:22:10.484Z,15.47
2023-01-21T21:26:24.446Z,15.00
2023-01-21T21:30:38.247Z,14.23
2023-01-21T21:34:43.935Z,13.53
2023-01-21T21:38:55.784Z,14.17
2023-01-21T21:43:16.955Z,14.23
2023-01-21T21:47:38.801Z,13.70
2023-01-21T21:51:43.071Z,16.20
2023-01-21T21:55:48.199Z,15.33
2023-01-21T21:59:51.302Z,17.87
2023-01-21T22:03:59.502Z,11.43
2023-01-21T22:08:03.719Z,13.10
2023-01-21T22:12:07.346Z,14.70
2023-01-21T22:16:15.997Z,17.80
2023-01-21T22:20:23.044Z,12.07
2023-01-21T22:24:25.871Z,14.13
2023-01-21T22:28:37.004Z,12.63
2023-01-21T22:32:42.244Z,14.53
2023-01-21T22:36:48.744Z,13.63
2023-01-21T22:41:00.939Z,15.07
2023-01-21T22:45:13.005Z,13.73
2023-01-21T22:49:18.997Z,16.03
2023-01-21T22:53:23.834Z,18.37
2023-01-21T22:57:26.650Z,13.60
2023-01-21T23:01:36.516Z,12.83
2023-01-21T23:05:39.534Z,13.03
2023-01-21T23:09:44.982Z,12.90
2023-01-21T23:13:52.771Z,12.37
2023-01-21T23:17:56.085Z,13.83
2023-01-21T23:22:00.379Z,13.37
2023-01-21T23:26:09.286Z,12.63
2023-01-21T23:30:16.641Z,15.10
2023-01-21T23:34:23.651Z,15.33
2023-01-21T23:38:26.889Z,9.67
2023-01-21T23:42:33.820Z,16.27
2023-01-21T23:46:38.995Z,14.33
2023-01-21T23:50:41.798Z,12.03
2023-01-21T23:54:47.011Z,11.20
2023-01-21T23:58:52.027Z,11.17
